• Join FlightAware (Why Join?)
  • Login
  • US Flag GB Flag 
16:50 EST


 

Airport Tracker/Info


-or-


 

Live Flight TrackerFlight Track Log ✈ USC105 ✈ 16-Apr-2013 ✈ KYIP - KDPA

Flight Track Log - Related Links

Times and Time Zones

All times are in EDT time to prevent confusion due to time zone crossing. See the USC105 flight status page for this flight to view local times or setup timezone preferences in your user account.

Time Position Orientation Groundspeed Altitude Reporting Facility
EDT Latitude Longitude Course Direction KTS MPH feet Rate Location/Type
00:23 42.2400 -83.5964 267° West 116 133 2,400  Level FAA TRACON SMA TRACON (SMA)
00:23 42.2394 -83.6111 267° West 124 143 2,700 1,020 Climbing FAA TRACON SMA TRACON (SMA)
00:23 42.2383 -83.6289 265° West 124 143 3,100 1,020 Climbing FAA TRACON SMA TRACON (SMA)
00:24 42.2381 -83.6442 269° West 127 146 3,400 1,020 Climbing FAA TRACON SMA TRACON (SMA)
00:24 42.2375 -83.6586 267° West 126 145 3,800 840 Climbing FAA TRACON SMA TRACON (SMA)
00:24 42.2367 -83.6744 266° West 128 147 4,000 300 Climbing FAA TRACON SMA TRACON (SMA)
00:25 42.2356 -83.6950 266° West 145 167 4,000  Level FAA TRACON SMA TRACON (SMA)
00:25 42.2350 -83.7133 268° West 158 182 4,000  Level FAA TRACON SMA TRACON (SMA)
00:25 42.2339 -83.7347 266° West 163 188 4,000  Level FAA TRACON SMA TRACON (SMA)
00:26 42.2336 -83.7564 269° West 165 190 4,000  Level FAA TRACON SMA TRACON (SMA)
00:26 42.2322 -83.7753 264° West 164 189 4,000  Level FAA TRACON SMA TRACON (SMA)
00:26 42.2297 -83.7967 261° West 169 194 4,000  Level FAA TRACON SMA TRACON (SMA)
00:27 42.2286 -83.8192 266° West 169 194 4,000  Level FAA TRACON SMA TRACON (SMA)
00:27 42.2278 -83.8389 267° West 170 196 4,000  Level FAA TRACON SMA TRACON (SMA)
00:27 42.2264 -83.8617 265° West 171 197 4,000  Level FAA TRACON SMA TRACON (SMA)
00:28 42.2071 -83.9699 267° West  Level FlightAware Approximate
00:28 42.2253 -83.8836 266° West 173 199 4,000  Level FAA TRACON SMA TRACON (SMA)
00:28 42.2239 -83.9036 265° West 175 201 4,000  Level FAA TRACON SMA TRACON (SMA)
00:28 42.2228 -83.9239 266° West 175 201 4,000  Level FAA TRACON SMA TRACON (SMA)
00:29 42.2214 -83.9503 266° West 181 208 4,000  Level FAA TRACON SMA TRACON (SMA)
00:29 42.2197 -83.9717 264° West 185 213 4,000  Level FAA TRACON SMA TRACON (SMA)
00:29 42.2186 -83.9933 266° West 186 214 4,000  Level FAA TRACON SMA TRACON (SMA)
00:30 42.2172 -84.0211 266° West 190 219 4,000  Level FAA TRACON SMA TRACON (SMA)
00:30 42.2161 -84.0428 266° West 190 219 4,000  Level FAA TRACON SMA TRACON (SMA)
00:30 42.2150 -84.0644 266° West 189 217 4,000  Level FAA TRACON SMA TRACON (SMA)
00:31 42.2133 -84.0914 265° West 188 216 4,000  Level FAA TRACON SMA TRACON (SMA)
00:31 42.2122 -84.1133 266° West 189 217 4,000  Level FAA TRACON SMA TRACON (SMA)
00:31 42.2106 -84.1353 264° West 190 219 4,000  Level FAA TRACON SMA TRACON (SMA)
00:32 42.2092 -84.1625 266° West 189 217 4,000  Level FAA TRACON SMA TRACON (SMA)
00:32 42.2081 -84.1842 266° West 189 217 4,000  Level FAA TRACON SMA TRACON (SMA)
00:32 42.2067 -84.2058 265° West 189 217 4,000  Level FAA TRACON SMA TRACON (SMA)
00:33 42.2050 -84.2333 265° West 190 219 4,000  Level FAA TRACON SMA TRACON (SMA)
00:33 42.2039 -84.2553 266° West 190 219 4,000  Level FAA TRACON SMA TRACON (SMA)
00:33 42.2028 -84.2789 266° West 189 217 4,000  Level FAA TRACON SMA TRACON (SMA)
00:34 42.2011 -84.3044 265° West 190 219 4,000  Level FAA TRACON SMA TRACON (SMA)
00:34 42.1997 -84.3264 265° West 190 219 4,000  Level FAA TRACON SMA TRACON (SMA)
00:34 42.1989 -84.3483 267° West 190 219 4,000  Level FAA TRACON SMA TRACON (SMA)
00:35 42.1972 -84.3756 265° West 190 219 4,000  Level FAA TRACON SMA TRACON (SMA)
00:35 42.1967 -84.3978 268° West 190 219 4,000  Level FAA TRACON SMA TRACON (SMA)
00:35 42.1950 -84.4192 264° West 190 219 4,000  Level FAA TRACON SMA TRACON (SMA)
00:36 42.1931 -84.4464 265° West 189 217 4,000  Level FAA TRACON SMA TRACON (SMA)
00:36 42.1919 -84.4681 266° West 189 217 4,000  Level FAA TRACON SMA TRACON (SMA)
00:36 42.1903 -84.4900 264° West 190 219 4,000  Level FAA TRACON SMA TRACON (SMA)
00:37 42.1889 -84.5169 266° West 190 219 4,000  Level FAA TRACON SMA TRACON (SMA)
00:37 42.1878 -84.5389 266° West 190 219 4,000  Level FAA TRACON SMA TRACON (SMA)
00:37 42.1872 -84.5444 262° West 190 219 4,000  Level FAA TRACON SMA TRACON (SMA)
00:39 42.1792 -84.6844 266° West 192 221 4,000  Level Chicago Center
00:40 42.1750 -84.7547 265° West 191 220 4,000  Level Chicago Center
00:41 42.1703 -84.8253 265° West 191 220 4,000  Level Chicago Center
00:42 42.1658 -84.8964 265° West 191 220 4,000  Level Chicago Center
00:43 42.1606 -84.9806 265° West 190 219 4,000  Level Chicago Center
00:44 42.1572 -85.0522 266° West 192 221 4,000  Level Chicago Center
00:45 42.1519 -85.1217 264° West 189 217 4,000  Level Chicago Center
00:46 42.1472 -85.1933 265° West 191 220 4,000  Level Chicago Center
00:47 42.1431 -85.2628 265° West 190 219 4,000  Level Chicago Center
00:48 42.1375 -85.3319 264° West 187 215 4,000  Level Chicago Center
00:49 42.1336 -85.4017 266° West 188 216 4,000  Level Chicago Center
00:50 42.1292 -85.4697 265° West 186 214 4,000  Level Chicago Center
00:51 42.1242 -85.5386 264° West 185 213 4,000  Level Chicago Center
00:52 42.1186 -85.6081 264° West 187 215 4,000  Level Chicago Center
00:53 42.1147 -85.6783 266° West 188 216 4,000  Level Chicago Center
00:54 42.1094 -85.7478 264° West 187 215 4,000  Level Chicago Center
00:55 42.1042 -85.8178 264° West 189 217 4,000  Level Chicago Center
00:56 42.1003 -85.8867 266° West 187 215 4,000  Level Chicago Center
00:57 42.0947 -85.9567 264° West 189 217 4,000  Level Chicago Center
00:59 42.0844 -86.0981 264° West 190 219 4,000  Level Chicago Center
01:00 42.0789 -86.1683 264° West 190 219 4,000  Level Chicago Center
01:01 42.0736 -86.2392 264° West 191 220 4,000  Level Chicago Center
01:02 42.0683 -86.3094 264° West 191 220 4,000  Level Chicago Center
01:03 42.0625 -86.3800 264° West 189 217 4,000  Level Chicago Center
01:04 42.0561 -86.4639 264° West 190 219 4,000  Level Chicago Center
01:05 42.0511 -86.5350 265° West 190 219 4,000  Level Chicago Center
01:06 42.0458 -86.6053 264° West 190 219 4,000  Level Chicago Center
01:07 42.0406 -86.6750 264° West 189 217 4,000  Level Chicago Center
01:08 42.0342 -86.7450 263° West 189 217 4,000  Level Chicago Center
01:09 42.0294 -86.8175 265° West 189 217 4,000  Level Chicago Center
01:10 42.0236 -86.8861 263° West 189 217 4,000  Level Chicago Center
01:11 42.0183 -86.9581 264° West 193 222 4,000  Level Chicago Center
01:12 42.0131 -87.0269 264° West 190 219 4,000  Level Chicago Center
01:13 42.0072 -87.0981 264° West 191 220 4,000  Level Chicago Center
01:14 42.0014 -87.1681 264° West 191 220 4,000  Level Chicago Center
01:15 41.9958 -87.2392 264° West 191 220 4,000  Level Chicago Center
01:16 41.9897 -87.3086 263° West 191 220 4,000  Level Chicago Center
01:17 41.9839 -87.3808 264° West 192 221 4,000  Level Chicago Center
01:18 41.9833 -87.4000 268° West 190 219 4,000  Level Chicago TRACON
01:19 41.9667 -87.4833 255° West 190 219 4,000  Level Chicago TRACON
01:20 41.9667 -87.5500 270° West 190 219 4,000  Level Chicago TRACON
01:21 41.9667 -87.6167 270° West 190 219 4,000  Level Chicago TRACON
01:22 41.9500 -87.6833 251° West 189 217 4,000  Level Chicago TRACON
01:23 41.9500 -87.7667 270° West 190 219 4,000  Level Chicago TRACON
01:24 41.9500 -87.8333 270° West 188 216 4,000  Level Chicago TRACON
01:25 41.9333 -87.9000 251° West 185 213 4,000  Level Chicago TRACON
01:26 41.9167 -87.9500 246° West 175 201 4,000  Level Chicago TRACON
01:27 41.9000 -88.0000 246° West 165 190 4,000 -300 Level Chicago TRACON
01:28 41.9000 -88.0667 270° West 159 183 3,500 -780 Descending Chicago TRACON
01:29 41.9000 -88.1167 270° West 159 183 2,500 -1,020 Descending Chicago TRACON
01:29 41.9058 -88.1689 279° West 163 188 1,700 -780 Descending Chicago Center
01:30 41.9094 -88.2161 276° West 149 171 1,200 -360 Descending Chicago Center
01:31 41.9119 -88.2561 275° West 140 161 1,000 -240 Descending Chicago Center
01:33 41.9071 -88.2480 270° West  Level Estimated